createdAt,value
2018-10-05T00:02:13.424Z,10.93
2018-10-05T00:04:41.831Z,14.97
2018-10-05T00:07:10.329Z,11.00
2018-10-05T00:09:38.587Z,13.53
2018-10-05T00:12:06.859Z,18.47
2018-10-05T00:14:36.089Z,11.83
2018-10-05T00:17:04.549Z,10.87
2018-10-05T00:19:32.938Z,9.83
2018-10-05T00:22:01.217Z,13.60
2018-10-05T00:24:29.437Z,14.07
2018-10-05T00:26:57.809Z,11.67
2018-10-05T00:29:26.090Z,11.93
2018-10-05T00:31:54.440Z,10.67
2018-10-05T00:34:22.752Z,12.50
2018-10-05T00:36:50.994Z,13.20
2018-10-05T00:39:19.302Z,17.20
2018-10-05T00:41:47.581Z,12.77
2018-10-05T00:44:15.962Z,17.43
2018-10-05T00:46:44.182Z,15.27
2018-10-05T00:49:12.465Z,14.93
2018-10-05T00:51:40.841Z,13.60
2018-10-05T00:54:09.073Z,10.83
2018-10-05T00:56:37.558Z,13.93
2018-10-05T00:59:06.034Z,15.13
2018-10-05T01:01:34.554Z,11.97
2018-10-05T01:04:02.943Z,11.53
2018-10-05T01:06:31.246Z,14.70
2018-10-05T01:08:59.508Z,12.87
2018-10-05T01:11:27.953Z,11.70
2018-10-05T01:13:56.416Z,12.50
2018-10-05T01:16:25.419Z,15.53
2018-10-05T01:18:53.635Z,12.93
2018-10-05T01:21:21.912Z,12.93
2018-10-05T01:23:50.659Z,13.53
2018-10-05T01:26:19.558Z,13.10
2018-10-05T01:28:48.087Z,15.13
2018-10-05T01:31:16.365Z,10.10
2018-10-05T01:33:44.596Z,10.43
2018-10-05T01:36:12.835Z,13.70
2018-10-05T01:38:41.448Z,12.30
2018-10-05T01:41:09.631Z,17.17
2018-10-05T01:43:37.825Z,16.40
2018-10-05T01:46:06.030Z,15.30
2018-10-05T01:48:34.550Z,16.90
2018-10-05T01:51:03.562Z,20.53
2018-10-05T01:53:31.837Z,15.93
2018-10-05T01:56:00.060Z,11.20
2018-10-05T01:58:28.339Z,12.13
2018-10-05T02:00:57.531Z,13.50
2018-10-05T02:03:26.106Z,13.03
2018-10-05T02:05:54.334Z,16.23
2018-10-05T02:08:22.615Z,11.70
2018-10-05T02:10:50.803Z,12.90
2018-10-05T02:13:19.355Z,11.03
2018-10-05T02:15:47.629Z,10.90
2018-10-05T02:18:15.937Z,12.87
2018-10-05T02:20:44.146Z,12.27
2018-10-05T02:23:12.611Z,15.30
2018-10-05T02:25:41.399Z,12.33
2018-10-05T02:28:09.673Z,15.57
2018-10-05T02:30:37.908Z,11.13
2018-10-05T02:33:06.234Z,13.50
2018-10-05T02:35:35.022Z,14.27
2018-10-05T02:38:03.450Z,11.63
2018-10-05T02:40:31.629Z,12.87
2018-10-05T02:42:59.946Z,13.17
2018-10-05T02:45:28.122Z,11.10
2018-10-05T02:47:56.536Z,9.43
2018-10-05T02:50:24.697Z,15.63
2018-10-05T02:52:52.906Z,14.23
2018-10-05T02:55:21.118Z,11.97
2018-10-05T02:57:49.382Z,14.07
2018-10-05T03:00:29.048Z,15.73
2018-10-05T03:02:58.249Z,11.63
2018-10-05T03:05:26.498Z,12.47
2018-10-05T03:07:54.690Z,11.00
2018-10-05T03:10:23.038Z,12.57
2018-10-05T03:12:51.242Z,13.73
2018-10-05T03:15:20.134Z,11.00
2018-10-05T03:17:48.434Z,17.00
2018-10-05T03:20:16.649Z,12.03
2018-10-05T03:22:44.867Z,10.23
2018-10-05T03:25:13.294Z,13.13
2018-10-05T03:27:41.562Z,12.00
2018-10-05T03:30:09.775Z,14.10
2018-10-05T03:32:37.973Z,12.47
2018-10-05T03:35:06.195Z,14.47
2018-10-05T03:37:35.404Z,16.03
2018-10-05T03:40:04.337Z,13.33
2018-10-05T03:42:32.538Z,11.80
2018-10-05T03:45:00.784Z,13.67
2018-10-05T03:47:28.986Z,13.57
2018-10-05T03:49:57.286Z,13.93
2018-10-05T03:52:26.637Z,12.87
2018-10-05T03:54:55.679Z,11.83
2018-10-05T03:57:23.859Z,16.90
2018-10-05T03:59:52.034Z,13.83
2018-10-05T04:02:20.486Z,13.73
2018-10-05T04:04:49.886Z,15.13
2018-10-05T04:07:18.649Z,10.90
2018-10-05T04:09:46.871Z,14.43
2018-10-05T04:12:15.058Z,13.27
2018-10-05T04:14:43.285Z,14.03
2018-10-05T04:17:11.798Z,12.30
2018-10-05T04:19:40.120Z,14.40
2018-10-05T04:22:08.394Z,12.13
2018-10-05T04:24:36.610Z,11.80
2018-10-05T04:27:06.034Z,13.00
2018-10-05T04:29:34.226Z,13.80
2018-10-05T04:32:02.501Z,13.07
2018-10-05T04:34:30.707Z,15.53
2018-10-05T04:36:59.185Z,15.00
2018-10-05T04:39:27.463Z,9.83
2018-10-05T04:41:55.975Z,11.67
2018-10-05T04:44:24.174Z,10.77
2018-10-05T04:46:52.374Z,13.23
2018-10-05T04:49:20.564Z,13.60
2018-10-05T04:51:48.966Z,13.90
2018-10-05T04:54:20.970Z,15.60
2018-10-05T04:56:49.403Z,12.50
2018-10-05T04:59:17.495Z,15.43
2018-10-05T05:01:45.807Z,12.87
2018-10-05T05:04:14.022Z,15.97
2018-10-05T05:06:42.391Z,14.67
2018-10-05T05:09:10.978Z,12.27
2018-10-05T05:11:39.428Z,16.07
2018-10-05T05:14:07.663Z,15.67
2018-10-05T05:16:35.874Z,11.47
2018-10-05T05:19:04.608Z,15.77
2018-10-05T05:21:33.479Z,13.50
2018-10-05T05:24:01.767Z,14.97
2018-10-05T05:26:30.088Z,14.33
2018-10-05T05:28:58.367Z,10.23
2018-10-05T05:31:26.655Z,15.93
2018-10-05T05:33:54.940Z,14.93
2018-10-05T05:36:23.299Z,10.40
2018-10-05T05:38:51.526Z,13.37
2018-10-05T05:41:19.772Z,14.00
2018-10-05T05:43:48.240Z,14.50
2018-10-05T05:46:16.419Z,12.93
2018-10-05T05:48:44.914Z,15.60
2018-10-05T05:51:13.136Z,10.93
2018-10-05T05:53:41.443Z,15.27
2018-10-05T05:56:09.606Z,13.23
2018-10-05T05:58:37.825Z,14.33
2018-10-05T06:01:07.088Z,11.73
2018-10-05T06:03:36.778Z,11.57
2018-10-05T06:06:05.741Z,16.10
2018-10-05T06:08:34.397Z,14.60
2018-10-05T06:11:02.700Z,15.57
2018-10-05T06:13:30.883Z,12.33
2018-10-05T06:15:59.193Z,18.87
2018-10-05T06:18:27.514Z,12.77
2018-10-05T06:20:55.980Z,17.80
2018-10-05T06:23:24.598Z,12.83
2018-10-05T06:25:52.813Z,20.87
2018-10-05T06:28:21.034Z,17.27
2018-10-05T06:30:49.799Z,16.93
2018-10-05T06:33:18.145Z,11.87
2018-10-05T06:35:46.292Z,15.37
2018-10-05T06:38:14.595Z,15.77
2018-10-05T06:40:42.842Z,22.27
2018-10-05T06:43:11.098Z,13.43
2018-10-05T06:45:39.348Z,19.37
2018-10-05T06:48:07.582Z,11.20
2018-10-05T06:50:35.790Z,18.30
2018-10-05T06:53:04.082Z,15.13
2018-10-05T06:55:32.295Z,14.33
2018-10-05T06:58:00.496Z,15.13
2018-10-05T07:00:29.045Z,15.67
2018-10-05T07:02:57.491Z,22.73
2018-10-05T07:05:25.709Z,16.67
2018-10-05T07:07:53.976Z,25.83
2018-10-05T07:10:22.074Z,11.63
2018-10-05T07:12:51.117Z,15.03
2018-10-05T07:15:20.323Z,13.07
2018-10-05T07:17:48.610Z,13.00
2018-10-05T07:20:16.819Z,12.23
2018-10-05T07:22:45.019Z,12.00
2018-10-05T07:25:13.279Z,13.60
2018-10-05T07:27:41.599Z,17.33
2018-10-05T07:30:09.852Z,13.47
2018-10-05T07:32:38.050Z,10.77
2018-10-05T07:35:06.300Z,15.10
2018-10-05T07:37:34.587Z,19.90
2018-10-05T07:40:02.748Z,13.07
2018-10-05T07:42:30.983Z,9.43
2018-10-05T07:44:59.233Z,16.97
2018-10-05T07:47:27.599Z,11.93
2018-10-05T07:49:56.054Z,11.77
2018-10-05T07:52:24.256Z,14.00
2018-10-05T07:54:52.475Z,13.13
2018-10-05T07:57:20.760Z,12.70
2018-10-05T07:59:49.199Z,10.70
2018-10-05T08:02:17.371Z,8.70
2018-10-05T08:04:45.559Z,12.53
2018-10-05T08:07:14.749Z,8.73
2018-10-05T08:09:43.437Z,10.60
2018-10-05T08:12:12.744Z,9.77
2018-10-05T08:14:41.910Z,9.18
2018-10-05T08:17:10.286Z,9.90
2018-10-05T08:19:38.502Z,9.10
2018-10-05T08:22:06.674Z,12.10
2018-10-05T08:24:35.057Z,12.63
2018-10-05T08:27:03.528Z,10.70
2018-10-05T08:29:31.827Z,12.73
2018-10-05T08:32:00.028Z,12.20
2018-10-05T08:34:28.399Z,10.48
2018-10-05T08:36:56.907Z,11.97
2018-10-05T08:39:25.161Z,15.60
2018-10-05T08:41:53.423Z,11.78
2018-10-05T08:44:21.635Z,13.75
2018-10-05T08:46:50.808Z,11.88
2018-10-05T08:49:19.082Z,10.55
2018-10-05T08:51:47.454Z,13.22
2018-10-05T08:54:15.642Z,11.03
2018-10-05T08:56:43.914Z,10.78
2018-10-05T08:59:12.542Z,9.90
2018-10-05T09:01:40.936Z,8.90
2018-10-05T09:04:09.125Z,8.70
2018-10-05T09:06:37.441Z,13.58
2018-10-05T09:09:06.906Z,11.88
2018-10-05T09:11:35.295Z,10.35
2018-10-05T09:14:03.795Z,8.05
2018-10-05T09:16:32.084Z,10.43
2018-10-05T09:19:00.316Z,9.05
2018-10-05T09:21:28.597Z,10.08
2018-10-05T09:23:59.083Z,9.20
2018-10-05T09:26:27.575Z,8.63
2018-10-05T09:28:56.587Z,7.28
2018-10-05T09:31:24.808Z,9.93
2018-10-05T09:33:53.118Z,10.58
2018-10-05T09:36:21.361Z,11.22
2018-10-05T09:38:50.850Z,7.05
2018-10-05T09:41:19.102Z,9.93
2018-10-05T09:43:47.335Z,6.37
2018-10-05T09:46:16.111Z,6.50
2018-10-05T09:48:45.444Z,8.98
2018-10-05T09:51:13.782Z,11.10
2018-10-05T09:53:42.583Z,12.63
2018-10-05T09:56:10.815Z,7.55
2018-10-05T09:58:39.043Z,7.80
2018-10-05T10:01:12.624Z,8.45
2018-10-05T10:03:41.462Z,10.00
2018-10-05T10:06:09.652Z,6.00
2018-10-05T10:08:37.855Z,8.45
2018-10-05T10:11:06.108Z,11.03
2018-10-05T10:13:34.546Z,6.62
2018-10-05T10:16:02.781Z,7.47
2018-10-05T10:18:31.054Z,8.65
2018-10-05T10:20:59.298Z,10.08
2018-10-05T10:23:28.247Z,8.78
2018-10-05T10:25:56.907Z,6.85
2018-10-05T10:28:25.123Z,8.68
2018-10-05T10:30:53.312Z,4.62
2018-10-05T10:33:21.535Z,6.72
2018-10-05T10:35:49.990Z,7.90
2018-10-05T10:38:19.186Z,5.22
2018-10-05T10:40:47.438Z,5.75
2018-10-05T10:43:15.664Z,16.57
2018-10-05T10:45:43.886Z,6.95
2018-10-05T10:48:13.260Z,7.37
2018-10-05T10:50:41.819Z,4.85
2018-10-05T10:53:10.080Z,8.80
2018-10-05T10:55:38.292Z,6.05
2018-10-05T10:58:06.688Z,7.08
2018-10-05T11:00:35.304Z,8.20
2018-10-05T11:03:04.195Z,5.15
2018-10-05T11:05:32.504Z,4.60
2018-10-05T11:08:00.694Z,4.92
2018-10-05T11:10:28.984Z,7.40
2018-10-05T11:12:57.626Z,5.55
2018-10-05T11:15:25.907Z,5.20
2018-10-05T11:17:54.239Z,4.60
2018-10-05T11:20:22.536Z,5.58
2018-10-05T11:22:50.994Z,6.53
2018-10-05T11:25:19.223Z,4.53
2018-10-05T11:27:47.756Z,3.75
2018-10-05T11:30:15.965Z,4.00
2018-10-05T11:32:44.243Z,5.60
2018-10-05T11:35:12.613Z,5.97
2018-10-05T11:37:41.036Z,4.65
2018-10-05T11:40:09.275Z,4.65
2018-10-05T11:42:37.478Z,2.60
2018-10-05T11:45:06.010Z,4.65
2018-10-05T11:47:34.275Z,3.67
2018-10-05T11:50:02.590Z,4.87
2018-10-05T11:52:30.862Z,3.27
2018-10-05T11:54:59.099Z,3.50
2018-10-05T11:57:28.235Z,4.67
2018-10-05T11:59:56.578Z,3.40
2018-10-05T12:02:24.817Z,2.75
2018-10-05T12:04:53.259Z,4.20
2018-10-05T12:07:21.750Z,3.90
2018-10-05T12:09:50.810Z,3.98
2018-10-05T12:12:19.145Z,5.37
2018-10-05T12:14:47.410Z,4.70
2018-10-05T12:17:15.630Z,5.08
2018-10-05T12:19:44.001Z,3.37
2018-10-05T12:22:12.572Z,3.65
2018-10-05T12:24:41.021Z,4.17
2018-10-05T12:27:09.207Z,3.90
2018-10-05T12:29:37.760Z,3.33
2018-10-05T12:32:06.312Z,4.28
2018-10-05T12:34:34.922Z,6.00
2018-10-05T12:37:04.178Z,5.22
2018-10-05T12:39:33.099Z,4.62
2018-10-05T12:42:01.371Z,6.33
2018-10-05T12:44:29.617Z,6.22
2018-10-05T12:46:58.056Z,3.30
2018-10-05T12:49:27.171Z,3.33
2018-10-05T12:51:55.442Z,3.27
2018-10-05T12:54:24.138Z,2.92
2018-10-05T12:56:52.406Z,3.50
2018-10-05T12:59:41.233Z,4.37
2018-10-05T13:02:10.158Z,3.87
2018-10-05T13:04:38.403Z,7.13
2018-10-05T13:07:06.611Z,4.45
2018-10-05T13:09:35.207Z,3.17
2018-10-05T13:12:03.466Z,3.83
2018-10-05T13:14:31.697Z,4.87
2018-10-05T13:16:59.918Z,3.13
2018-10-05T13:19:28.653Z,4.40
2018-10-05T13:21:57.492Z,3.77
2018-10-05T13:24:25.782Z,2.83
2018-10-05T13:26:54.031Z,3.45
2018-10-05T13:29:22.230Z,7.62
2018-10-05T13:31:50.635Z,3.60
2018-10-05T13:34:19.028Z,5.22
2018-10-05T13:36:47.215Z,10.20
2018-10-05T13:39:15.432Z,2.73
2018-10-05T13:41:44.624Z,5.37
2018-10-05T13:44:14.683Z,3.33
2018-10-05T13:46:43.254Z,3.27
2018-10-05T13:49:11.523Z,3.10
2018-10-05T13:51:39.812Z,3.10
2018-10-05T13:54:08.011Z,3.23
2018-10-05T13:56:36.574Z,2.40
2018-10-05T13:59:06.171Z,3.53
2018-10-05T14:01:34.904Z,2.03
2018-10-05T14:04:04.388Z,1.80
2018-10-05T14:06:32.835Z,2.33
2018-10-05T14:09:01.185Z,2.47
2018-10-05T14:11:29.464Z,5.90
2018-10-05T14:13:58.190Z,2.50
2018-10-05T14:16:26.417Z,3.90
2018-10-05T14:18:54.618Z,2.70
2018-10-05T14:21:22.799Z,5.50
2018-10-05T14:23:52.082Z,5.33
2018-10-05T14:26:20.971Z,7.77
2018-10-05T14:28:49.843Z,6.77
2018-10-05T14:31:18.387Z,5.63
2018-10-05T14:33:46.679Z,4.97
2018-10-05T14:36:14.911Z,3.60
2018-10-05T14:38:43.667Z,5.03
2018-10-05T14:41:12.662Z,2.67
2018-10-05T14:43:40.974Z,4.57
2018-10-05T14:46:09.471Z,2.63
2018-10-05T14:48:39.702Z,3.90
2018-10-05T14:51:08.231Z,5.53
2018-10-05T14:53:36.707Z,3.13
2018-10-05T14:56:05.284Z,2.83
2018-10-05T14:58:33.778Z,4.47
2018-10-05T15:01:02.074Z,2.00
2018-10-05T15:03:30.305Z,5.13
2018-10-05T15:06:00.185Z,3.20
2018-10-05T15:08:28.607Z,1.93
2018-10-05T15:10:57.082Z,2.97
2018-10-05T15:13:25.391Z,3.67
2018-10-05T15:15:53.604Z,4.73
2018-10-05T15:18:21.906Z,2.90
2018-10-05T15:20:50.439Z,4.97
2018-10-05T15:23:18.731Z,4.87
2018-10-05T15:25:47.123Z,5.97
2018-10-05T15:28:15.365Z,2.90
2018-10-05T15:30:44.135Z,1.77
2018-10-05T15:33:12.978Z,3.73
2018-10-05T15:35:41.383Z,3.80
2018-10-05T15:38:09.879Z,3.00
2018-10-05T15:40:38.326Z,5.93
2018-10-05T15:43:06.758Z,2.27
2018-10-05T15:45:35.536Z,2.30
2018-10-05T15:48:03.739Z,4.33
2018-10-05T15:50:31.921Z,4.73
2018-10-05T15:53:00.134Z,2.47
2018-10-05T15:55:28.951Z,2.67
2018-10-05T15:57:57.231Z,3.10
2018-10-05T16:00:25.485Z,2.97
2018-10-05T16:02:53.711Z,3.47
2018-10-05T16:05:21.963Z,2.57
2018-10-05T16:07:50.119Z,4.27
2018-10-05T16:10:18.388Z,3.50
2018-10-05T16:12:46.680Z,1.73
2018-10-05T16:15:14.866Z,4.20
2018-10-05T16:17:43.700Z,2.60
2018-10-05T16:20:11.981Z,2.13
2018-10-05T16:22:40.244Z,2.73
2018-10-05T16:25:08.453Z,3.83
2018-10-05T16:27:36.798Z,5.17
2018-10-05T16:30:05.452Z,3.63
2018-10-05T16:32:33.748Z,4.77
2018-10-05T16:35:01.987Z,6.73
2018-10-05T16:37:30.775Z,3.73
2018-10-05T16:39:58.869Z,5.23
2018-10-05T16:42:28.242Z,4.40
2018-10-05T16:44:57.031Z,2.30
2018-10-05T16:47:25.486Z,3.47
2018-10-05T16:49:54.026Z,2.70
2018-10-05T16:52:22.211Z,4.70
2018-10-05T16:54:51.094Z,2.40
2018-10-05T16:57:19.557Z,3.30
2018-10-05T16:59:48.001Z,3.47
2018-10-05T17:02:16.265Z,4.17
2018-10-05T17:04:44.929Z,3.03
2018-10-05T17:07:13.995Z,6.53
2018-10-05T17:09:42.682Z,5.40
2018-10-05T17:12:12.987Z,7.83
2018-10-05T17:14:41.281Z,10.33
2018-10-05T17:17:09.623Z,6.87
2018-10-05T17:19:37.937Z,4.77
2018-10-05T17:22:06.241Z,7.47
2018-10-05T17:24:35.170Z,5.10
2018-10-05T17:27:03.461Z,4.17
2018-10-05T17:29:31.924Z,6.07
2018-10-05T17:32:00.236Z,7.60
2018-10-05T17:34:28.777Z,10.83
2018-10-05T17:36:57.367Z,8.73
2018-10-05T17:39:25.677Z,6.33
2018-10-05T17:41:54.463Z,9.33
2018-10-05T17:44:23.091Z,6.70
2018-10-05T17:46:51.556Z,6.87
2018-10-05T17:49:21.813Z,7.07
2018-10-05T17:51:50.059Z,6.47
2018-10-05T17:54:18.588Z,7.23
2018-10-05T17:56:46.864Z,6.90
2018-10-05T17:59:15.334Z,7.80
2018-10-05T18:01:44.942Z,14.23
2018-10-05T18:04:13.260Z,5.10
2018-10-05T18:06:41.590Z,9.07
2018-10-05T18:09:10.035Z,10.70
2018-10-05T18:11:38.356Z,10.27
2018-10-05T18:14:06.630Z,7.70
2018-10-05T18:16:35.345Z,5.20
2018-10-05T18:19:03.555Z,9.53
2018-10-05T18:21:32.027Z,8.17
2018-10-05T18:24:00.219Z,9.40
2018-10-05T18:26:28.674Z,8.90
2018-10-05T18:28:57.100Z,9.33
2018-10-05T18:31:25.338Z,8.27
2018-10-05T18:33:53.648Z,7.57
2018-10-05T18:36:23.008Z,12.03
2018-10-05T18:38:51.322Z,6.73
2018-10-05T18:41:20.142Z,10.17
2018-10-05T18:43:48.298Z,11.07
2018-10-05T18:46:16.622Z,7.20
2018-10-05T18:48:45.147Z,6.37
2018-10-05T18:51:13.595Z,8.03
2018-10-05T18:53:41.761Z,10.27
2018-10-05T18:56:21.663Z,10.27
2018-10-05T18:58:50.045Z,6.93
2018-10-05T19:01:18.381Z,7.07
2018-10-05T19:03:46.827Z,11.30
2018-10-05T19:06:15.819Z,7.17
2018-10-05T19:08:44.269Z,8.07
2018-10-05T19:11:12.627Z,8.87
2018-10-05T19:13:40.921Z,13.60
2018-10-05T19:16:09.377Z,7.00
2018-10-05T19:18:37.581Z,4.80
2018-10-05T19:21:06.013Z,8.83
2018-10-05T19:23:34.218Z,7.57
2018-10-05T19:26:02.532Z,8.00
2018-10-05T19:28:30.886Z,5.87
2018-10-05T19:30:59.232Z,6.53
2018-10-05T19:33:27.462Z,7.83
2018-10-05T19:35:55.694Z,6.23
2018-10-05T19:38:23.985Z,6.37
2018-10-05T19:40:52.266Z,7.23
2018-10-05T19:43:20.719Z,8.67
2018-10-05T19:45:49.009Z,8.93
2018-10-05T19:48:17.310Z,8.67
2018-10-05T19:50:46.002Z,6.83
2018-10-05T19:53:14.549Z,6.77
2018-10-05T19:55:42.746Z,5.30
2018-10-05T19:58:10.959Z,8.07
2018-10-05T20:00:39.243Z,6.80
2018-10-05T20:03:08.242Z,7.33
2018-10-05T20:05:36.623Z,6.67
2018-10-05T20:08:05.038Z,7.30
2018-10-05T20:10:33.317Z,6.20
2018-10-05T20:13:01.534Z,8.37
2018-10-05T20:15:29.727Z,7.97
2018-10-05T20:17:58.227Z,5.63
2018-10-05T20:20:26.318Z,4.93
2018-10-05T20:22:54.513Z,6.43
2018-10-05T20:25:22.789Z,6.17
2018-10-05T20:27:51.447Z,6.97
2018-10-05T20:30:19.779Z,5.37
2018-10-05T20:32:47.963Z,8.00
2018-10-05T20:35:16.253Z,5.73
2018-10-05T20:37:44.666Z,6.43
2018-10-05T20:40:12.861Z,9.27
2018-10-05T20:42:41.045Z,6.90
2018-10-05T20:45:09.274Z,7.37
2018-10-05T20:47:37.585Z,8.13
2018-10-05T20:50:06.038Z,7.70
2018-10-05T20:52:34.947Z,6.20
2018-10-05T20:55:03.523Z,9.77
2018-10-05T20:57:31.747Z,5.67
2018-10-05T20:59:59.942Z,7.97
2018-10-05T21:02:28.248Z,6.67
2018-10-05T21:04:56.558Z,11.07
2018-10-05T21:07:24.908Z,6.57
2018-10-05T21:09:53.653Z,7.43
2018-10-05T21:12:21.981Z,9.03
2018-10-05T21:14:51.406Z,9.43
2018-10-05T21:17:20.066Z,13.30
2018-10-05T21:19:48.383Z,7.87
2018-10-05T21:22:16.676Z,9.43
2018-10-05T21:24:44.898Z,13.60
2018-10-05T21:27:13.760Z,13.83
2018-10-05T21:29:43.141Z,7.20
2018-10-05T21:32:11.423Z,10.20
2018-10-05T21:34:39.624Z,8.43
2018-10-05T21:37:08.023Z,9.07
2018-10-05T21:39:36.280Z,7.77
2018-10-05T21:42:04.665Z,8.63
2018-10-05T21:44:32.854Z,8.07
2018-10-05T21:47:01.042Z,12.07
2018-10-05T21:49:29.336Z,8.93
2018-10-05T21:51:58.240Z,10.70
2018-10-05T21:54:26.496Z,11.37
2018-10-05T21:56:54.751Z,15.73
2018-10-05T21:59:22.979Z,9.97
2018-10-05T22:01:52.213Z,10.23
2018-10-05T22:04:20.567Z,7.83
2018-10-05T22:06:48.873Z,8.97
2018-10-05T22:09:17.118Z,8.83
2018-10-05T22:11:45.347Z,7.97
2018-10-05T22:14:13.683Z,8.63
2018-10-05T22:16:41.894Z,7.63
2018-10-05T22:19:10.193Z,7.97
2018-10-05T22:21:38.442Z,11.57
2018-10-05T22:24:06.634Z,8.27
2018-10-05T22:26:34.882Z,8.27
2018-10-05T22:29:03.161Z,8.47
2018-10-05T22:31:31.356Z,8.57
2018-10-05T22:33:59.554Z,9.83
2018-10-05T22:36:28.014Z,8.07
2018-10-05T22:38:56.268Z,8.23
2018-10-05T22:41:24.498Z,9.10
2018-10-05T22:43:52.686Z,9.17
2018-10-05T22:46:21.068Z,7.80
2018-10-05T22:48:49.777Z,8.57
2018-10-05T22:51:18.127Z,9.20
2018-10-05T22:53:46.348Z,9.87
2018-10-05T22:56:14.551Z,10.70
2018-10-05T22:58:43.717Z,7.77
2018-10-05T23:01:12.167Z,9.13
2018-10-05T23:03:40.343Z,8.97
2018-10-05T23:06:08.690Z,11.27
2018-10-05T23:08:36.875Z,9.77
2018-10-05T23:11:05.758Z,10.13
2018-10-05T23:13:34.020Z,9.07
2018-10-05T23:16:02.303Z,10.63
2018-10-05T23:18:30.531Z,8.47
2018-10-05T23:20:59.250Z,11.63
2018-10-05T23:23:27.648Z,8.67
2018-10-05T23:25:55.890Z,10.13
2018-10-05T23:28:24.093Z,8.13
2018-10-05T23:30:52.350Z,11.43
2018-10-05T23:33:20.677Z,6.97
2018-10-05T23:35:50.126Z,7.80
2018-10-05T23:38:18.334Z,12.27
2018-10-05T23:40:46.542Z,10.43
2018-10-05T23:43:14.730Z,7.73
2018-10-05T23:45:43.212Z,10.70
2018-10-05T23:48:11.541Z,9.97
2018-10-05T23:50:39.748Z,8.30
2018-10-05T23:53:07.984Z,9.23
2018-10-05T23:55:36.765Z,9.93
2018-10-05T23:58:05.505Z,7.30
